createdAt,value
2024-05-09T00:08:29.510Z,101504.62
2024-05-09T00:18:33.068Z,101500.27
2024-05-09T00:28:34.612Z,101501.52
2024-05-09T00:38:36.456Z,101500.91
2024-05-09T00:48:38.272Z,101498.98
2024-05-09T00:58:40.495Z,101508.70
2024-05-09T01:08:42.307Z,101513.51
2024-05-09T01:18:44.117Z,101500.24
2024-05-09T01:28:45.792Z,101503.06
2024-05-09T01:38:47.417Z,101508.31
2024-05-09T01:48:49.185Z,101513.31
2024-05-09T01:58:50.981Z,101519.24
2024-05-09T02:08:52.696Z,101513.50
2024-05-09T02:18:54.301Z,101514.65
2024-05-09T02:28:56.139Z,101521.67
2024-05-09T02:38:57.712Z,101517.77
2024-05-09T02:48:59.424Z,101526.52
2024-05-09T02:59:01.015Z,101537.30
2024-05-09T03:09:04.574Z,101529.37
2024-05-09T03:19:06.105Z,101534.11
2024-05-09T03:29:07.808Z,101530.34
2024-05-09T03:39:10.813Z,101529.55
2024-05-09T03:49:12.706Z,101528.35
2024-05-09T03:59:14.390Z,101532.30
2024-05-09T04:09:15.943Z,101529.84
2024-05-09T04:19:17.878Z,101534.00
2024-05-09T04:29:19.610Z,101545.35
2024-05-09T04:39:21.548Z,101547.35
2024-05-09T04:49:23.438Z,101542.73
2024-05-09T04:59:25.192Z,101533.14
2024-05-09T05:09:26.790Z,101538.73
2024-05-09T05:19:28.674Z,101550.09
2024-05-09T05:29:30.438Z,101547.30
2024-05-09T05:39:31.965Z,101547.63
2024-05-09T05:49:34.502Z,101548.50
2024-05-09T05:59:36.085Z,101551.59
2024-05-09T06:09:37.662Z,101542.77
2024-05-09T06:19:39.434Z,101539.36
2024-05-09T06:29:40.988Z,101536.02
2024-05-09T06:39:42.689Z,101537.14
2024-05-09T06:49:44.491Z,101536.12
2024-05-09T06:59:46.188Z,101530.02
2024-05-09T07:09:47.702Z,101533.06
2024-05-09T07:19:50.708Z,101532.02
2024-05-09T07:29:52.409Z,101526.89
2024-05-09T07:39:53.994Z,101525.04
2024-05-09T08:00:00.144Z,101521.84
2024-05-09T08:10:01.740Z,101515.70
2024-05-09T08:20:05.439Z,101506.92
2024-05-09T08:30:10.239Z,101505.91
2024-05-09T08:40:19.897Z,101501.12
2024-05-09T08:50:36.564Z,101492.89
2024-05-09T09:00:42.868Z,101486.88
2024-05-09T09:10:47.413Z,101474.69
2024-05-09T09:20:49.970Z,101476.95
2024-05-09T09:30:51.555Z,101474.58
2024-05-09T09:40:53.402Z,101477.58
2024-05-09T09:50:56.438Z,101465.95
2024-05-09T10:00:58.013Z,101456.52
2024-05-09T10:11:04.192Z,101454.44
2024-05-09T10:21:21.159Z,101460.35
2024-05-09T10:31:22.713Z,101460.81
2024-05-09T10:41:24.233Z,101457.14
2024-05-09T10:51:25.834Z,101450.13
2024-05-09T11:01:28.431Z,101441.90
2024-05-09T11:11:30.380Z,101431.05
2024-05-09T11:21:32.084Z,101417.46
2024-05-09T11:31:45.102Z,101406.47
2024-05-09T11:41:46.662Z,101403.32
2024-05-09T11:51:48.366Z,101394.51
2024-05-09T12:01:49.987Z,101386.90
2024-05-09T12:11:51.688Z,101385.27
2024-05-09T12:21:53.373Z,101380.84
2024-05-09T12:31:54.923Z,101371.84
2024-05-09T12:41:57.078Z,101360.13
2024-05-09T12:51:58.756Z,101349.77
2024-05-09T13:02:01.341Z,101337.92
2024-05-09T13:12:03.267Z,101320.20
2024-05-09T13:22:04.849Z,101310.34
2024-05-09T13:32:06.413Z,101306.85
2024-05-09T13:42:07.962Z,101309.14
2024-05-09T13:52:09.673Z,101298.98
2024-05-09T14:02:11.562Z,101295.02
2024-05-09T14:12:13.376Z,101278.65
2024-05-09T14:22:15.012Z,101262.70
2024-05-09T14:32:16.676Z,101255.27
2024-05-09T14:42:19.809Z,101244.35
2024-05-09T14:52:21.428Z,101229.21
2024-05-09T15:02:23.166Z,101217.52
2024-05-09T15:12:24.815Z,101204.55
2024-05-09T15:22:26.387Z,101205.89
2024-05-09T15:32:29.473Z,101201.23
2024-05-09T15:42:31.324Z,101189.61
2024-05-09T15:52:33.243Z,101181.64
2024-05-09T16:02:34.926Z,101174.55
2024-05-09T16:12:36.985Z,101170.45
2024-05-09T16:22:38.576Z,101162.52
2024-05-09T16:32:43.696Z,101155.46
2024-05-09T16:42:46.109Z,101148.79
2024-05-09T16:52:47.778Z,101151.70
2024-05-09T17:02:50.113Z,101151.73
2024-05-09T17:12:51.825Z,101146.94
2024-05-09T17:22:53.572Z,101144.58
2024-05-09T17:32:55.266Z,101144.59
2024-05-09T17:42:56.983Z,101142.14
2024-05-09T17:52:58.552Z,101143.98
2024-05-09T18:03:00.121Z,101147.88
2024-05-09T18:13:01.755Z,101152.43
2024-05-09T18:23:03.525Z,101160.57
2024-05-09T18:33:07.541Z,101165.55
2024-05-09T18:43:10.203Z,101176.20
2024-05-09T20:17:23.687Z,101206.09
2024-05-09T20:27:25.291Z,101211.84
2024-05-09T20:37:26.842Z,101211.92
2024-05-09T20:47:28.445Z,101212.29
2024-05-09T20:57:30.630Z,101210.31
2024-05-09T21:07:32.176Z,101206.65
2024-05-09T21:17:33.796Z,101211.77
2024-05-09T21:27:35.656Z,101207.89
2024-05-09T21:37:37.083Z,101201.78
2024-05-09T21:47:38.943Z,101205.55
2024-05-09T21:57:40.688Z,101208.89
2024-05-09T22:07:42.333Z,101203.23
2024-05-09T22:17:44.098Z,101202.59
2024-05-09T22:27:46.042Z,101204.90
2024-05-09T22:37:47.632Z,101201.32
2024-05-09T22:47:49.279Z,101193.66
2024-05-09T22:57:50.891Z,101193.94
2024-05-09T23:07:52.321Z,101195.42
2024-05-09T23:17:53.899Z,101192.91
2024-05-09T23:27:55.678Z,101190.42
2024-05-09T23:37:57.348Z,101188.92
2024-05-09T23:47:59.117Z,101176.30
2024-05-09T23:58:01.077Z,101166.75
